createdAt,value
2022-09-18T00:01:16.208Z,7.72
2022-09-18T00:03:43.640Z,9.48
2022-09-18T00:06:20.483Z,8.38
2022-09-18T00:08:52.234Z,7.07
2022-09-18T00:11:22.338Z,8.35
2022-09-18T00:13:50.610Z,10.13
2022-09-18T00:16:20.176Z,10.50
2022-09-18T00:18:48.094Z,6.85
2022-09-18T00:21:18.222Z,6.97
2022-09-18T00:23:46.128Z,7.63
2022-09-18T00:26:15.223Z,8.70
2022-09-18T00:28:42.412Z,8.00
2022-09-18T00:31:15.634Z,9.00
2022-09-18T00:33:43.292Z,9.23
2022-09-18T00:36:13.428Z,8.27
2022-09-18T00:38:41.146Z,8.77
2022-09-18T00:41:13.176Z,10.13
2022-09-18T00:43:40.569Z,11.40
2022-09-18T00:46:36.763Z,10.82
2022-09-18T00:49:25.402Z,10.90
2022-09-18T00:51:55.613Z,9.43
2022-09-18T00:54:31.772Z,10.77
2022-09-18T00:57:10.252Z,12.20
2022-09-18T00:59:39.938Z,10.05
2022-09-18T01:02:06.767Z,8.38
2022-09-18T01:04:34.044Z,9.02
2022-09-18T01:07:35.354Z,11.65
2022-09-18T01:10:17.448Z,11.70
2022-09-18T01:13:02.164Z,11.13
2022-09-18T01:15:54.636Z,8.98
2022-09-18T01:18:21.681Z,10.15
2022-09-18T01:21:04.554Z,10.93
2022-09-18T01:23:52.648Z,9.25
2022-09-18T01:26:45.832Z,8.88
2022-09-18T01:29:23.640Z,9.30
2022-09-18T01:31:56.504Z,10.75
2022-09-18T01:34:44.930Z,12.80
2022-09-18T01:37:17.067Z,11.02
2022-09-18T01:39:57.097Z,11.27
2022-09-18T01:42:28.646Z,13.77
2022-09-18T01:44:59.336Z,8.50
2022-09-18T01:47:32.167Z,20.33
2022-09-18T01:50:01.770Z,12.23
2022-09-18T01:52:35.244Z,8.48
2022-09-18T01:55:06.913Z,12.80
2022-09-18T01:57:46.287Z,10.30
2022-09-18T02:00:14.488Z,10.38
2022-09-18T02:02:51.959Z,10.43
2022-09-18T02:05:43.523Z,12.27
2022-09-18T02:08:27.059Z,14.07
2022-09-18T02:11:08.594Z,14.32
2022-09-18T02:13:40.536Z,8.65
2022-09-18T02:16:18.283Z,11.73
2022-09-18T02:18:51.205Z,7.85
2022-09-18T02:21:26.259Z,12.27
2022-09-18T02:23:56.471Z,12.60
2022-09-18T02:26:24.089Z,11.48
2022-09-18T02:28:51.093Z,10.38
2022-09-18T02:31:18.361Z,12.43
2022-09-18T02:33:45.397Z,10.80
2022-09-18T02:36:32.463Z,12.68
2022-09-18T02:39:28.534Z,13.02
2022-09-18T02:42:10.536Z,11.77
2022-09-18T02:45:06.591Z,10.55
2022-09-18T02:48:10.663Z,18.85
2022-09-18T02:51:10.851Z,13.73
2022-09-18T02:54:12.069Z,14.82
2022-09-18T02:56:52.907Z,17.40
2022-09-18T02:59:26.633Z,16.03
2022-09-18T03:01:58.826Z,22.65
2022-09-18T03:04:28.013Z,17.20
2022-09-18T03:07:06.581Z,21.60
2022-09-18T03:09:40.096Z,12.75
2022-09-18T03:12:08.818Z,14.52
2022-09-18T03:14:41.203Z,19.40
2022-09-18T03:17:09.493Z,12.73
2022-09-18T03:19:36.277Z,19.00
2022-09-18T03:22:03.422Z,24.35
2022-09-18T03:24:34.144Z,14.90
2022-09-18T03:27:02.945Z,17.00
2022-09-18T03:29:30.064Z,20.83
2022-09-18T03:31:57.866Z,15.10
2022-09-18T03:34:24.953Z,19.35
2022-09-18T03:36:51.941Z,20.85
2022-09-18T03:39:19.312Z,21.95
2022-09-18T03:41:47.759Z,17.85
2022-09-18T03:44:14.685Z,19.83
2022-09-18T03:46:44.234Z,18.92
2022-09-18T03:49:11.191Z,18.05
2022-09-18T03:51:40.202Z,20.10
2022-09-18T03:54:08.791Z,17.20
2022-09-18T03:56:58.431Z,19.35
2022-09-18T04:00:00.928Z,17.30
2022-09-18T04:02:43.423Z,20.83
2022-09-18T04:05:29.320Z,17.75
2022-09-18T04:08:14.769Z,19.70
2022-09-18T04:10:47.464Z,19.48
2022-09-18T04:13:14.611Z,14.65
2022-09-18T04:15:41.681Z,23.23
2022-09-18T04:18:09.429Z,15.07
2022-09-18T04:20:36.223Z,19.17
2022-09-18T04:23:05.350Z,17.50
2022-09-18T04:25:34.034Z,18.92
2022-09-18T04:28:01.591Z,19.33
2022-09-18T04:30:28.880Z,21.38
2022-09-18T04:32:55.922Z,17.73
2022-09-18T04:35:24.712Z,18.08
2022-09-18T04:37:51.580Z,17.20
2022-09-18T04:40:18.630Z,16.20
2022-09-18T04:42:46.541Z,19.63
2022-09-18T04:45:13.688Z,15.88
2022-09-18T04:47:41.340Z,14.60
2022-09-18T04:50:08.969Z,21.33
2022-09-18T04:52:36.065Z,14.95
2022-09-18T04:55:04.429Z,18.77
2022-09-18T04:57:32.148Z,18.52
2022-09-18T04:59:59.830Z,24.38
2022-09-18T05:02:26.930Z,16.65
2022-09-18T05:04:54.148Z,19.02
2022-09-18T05:07:34.482Z,15.68
2022-09-18T05:10:01.874Z,21.00
2022-09-18T05:12:31.018Z,14.07
2022-09-18T05:14:58.286Z,15.77
2022-09-18T05:17:25.218Z,18.88
2022-09-18T05:19:59.917Z,19.50
2022-09-18T05:24:58.294Z,19.40
2022-09-18T05:27:27.073Z,18.13
2022-09-18T05:29:55.489Z,22.13
2022-09-18T05:32:28.047Z,26.77
2022-09-18T05:34:55.900Z,21.38
2022-09-18T05:37:22.836Z,20.13
2022-09-18T05:39:53.610Z,17.15
2022-09-18T05:42:20.643Z,25.63
2022-09-18T05:44:47.464Z,14.80
2022-09-18T05:47:19.711Z,23.67
2022-09-18T05:49:46.582Z,27.90
2022-09-18T05:52:13.406Z,17.33
2022-09-18T05:54:40.954Z,20.50
2022-09-18T05:57:09.268Z,16.70
2022-09-18T05:59:36.136Z,21.75
2022-09-18T06:02:04.732Z,23.08
2022-09-18T06:05:07.486Z,20.45
2022-09-18T06:07:34.482Z,19.42
2022-09-18T06:10:01.400Z,18.83
2022-09-18T06:12:28.260Z,19.02
2022-09-18T06:14:55.389Z,16.17
2022-09-18T06:17:24.501Z,21.80
2022-09-18T06:19:54.238Z,13.57
2022-09-18T06:22:21.611Z,18.75
2022-09-18T06:24:48.734Z,18.58
2022-09-18T06:27:18.501Z,10.55
2022-09-18T06:29:45.568Z,15.00
2022-09-18T06:32:16.052Z,11.18
2022-09-18T06:34:43.042Z,13.07
2022-09-18T06:37:13.578Z,13.20
2022-09-18T06:39:43.737Z,11.02
2022-09-18T06:42:19.496Z,11.40
2022-09-18T06:45:15.576Z,11.02
2022-09-18T06:47:44.644Z,10.40
2022-09-18T06:50:12.724Z,16.05
2022-09-18T06:52:39.539Z,8.15
2022-09-18T06:55:06.926Z,10.85
2022-09-18T06:57:34.028Z,8.25
2022-09-18T07:00:01.022Z,9.95
2022-09-18T07:02:33.807Z,9.75
2022-09-18T07:05:25.624Z,10.35
2022-09-18T07:07:53.160Z,8.30
2022-09-18T07:10:20.405Z,7.45
2022-09-18T07:12:48.956Z,9.10
2022-09-18T07:15:20.909Z,9.57
2022-09-18T07:17:47.811Z,7.90
2022-09-18T07:20:17.080Z,7.25
2022-09-18T07:22:52.750Z,13.35
2022-09-18T07:25:20.637Z,8.05
2022-09-18T07:27:49.938Z,8.88
2022-09-18T07:30:18.953Z,8.10
2022-09-18T07:32:46.588Z,7.78
2022-09-18T07:35:17.570Z,8.32
2022-09-18T07:37:44.499Z,9.05
2022-09-18T07:40:17.367Z,8.00
2022-09-18T07:43:07.578Z,7.15
2022-09-18T07:45:36.687Z,11.15
2022-09-18T07:48:05.298Z,10.82
2022-09-18T07:50:36.296Z,8.95
2022-09-18T07:53:05.423Z,10.10
2022-09-18T07:55:37.000Z,10.05
2022-09-18T07:58:06.847Z,12.18
2022-09-18T08:01:11.870Z,9.40
2022-09-18T08:03:45.925Z,13.38
2022-09-18T08:06:12.858Z,12.57
2022-09-18T08:09:06.076Z,18.08
2022-09-18T08:11:54.167Z,18.38
2022-09-18T08:14:29.222Z,13.98
2022-09-18T08:17:22.321Z,15.90
2022-09-18T08:20:24.649Z,16.30
2022-09-18T08:22:54.650Z,13.70
2022-09-18T08:25:27.467Z,13.20
2022-09-18T08:28:13.722Z,12.23
2022-09-18T08:30:53.546Z,18.27
2022-09-18T08:33:20.972Z,11.20
2022-09-18T08:35:48.840Z,12.68
2022-09-18T08:38:33.278Z,11.68
2022-09-18T08:41:55.408Z,13.70
2022-09-18T08:44:40.418Z,10.32
2022-09-18T08:47:18.975Z,15.90
2022-09-18T08:49:54.500Z,11.40
2022-09-18T08:52:24.553Z,12.93
2022-09-18T08:55:15.035Z,11.13
2022-09-18T08:58:03.303Z,11.52
2022-09-18T09:00:38.724Z,10.48
2022-09-18T09:03:25.548Z,9.48
2022-09-18T09:05:58.770Z,9.10
2022-09-18T09:09:04.601Z,9.40
2022-09-18T09:11:34.046Z,9.50
2022-09-18T09:14:55.961Z,10.25
2022-09-18T09:17:41.693Z,14.35
2022-09-18T09:20:35.457Z,14.90
2022-09-18T09:23:12.744Z,19.00
2022-09-18T09:26:04.226Z,14.50
2022-09-18T09:29:10.250Z,18.17
2022-09-18T09:32:06.264Z,9.88
2022-09-18T09:34:58.354Z,10.32
2022-09-18T09:37:48.340Z,9.57
2022-09-18T09:40:32.513Z,9.85
2022-09-18T09:43:11.531Z,9.52
2022-09-18T09:45:46.250Z,6.22
2022-09-18T09:48:35.243Z,9.02
2022-09-18T09:51:05.458Z,10.02
2022-09-18T09:53:32.437Z,8.27
2022-09-18T09:56:26.436Z,7.80
2022-09-18T09:59:21.549Z,8.07
2022-09-18T10:02:37.245Z,8.65
2022-09-18T10:05:39.534Z,6.50
2022-09-18T10:08:27.362Z,14.68
2022-09-18T10:11:00.672Z,10.52
2022-09-18T10:13:40.318Z,8.80
2022-09-18T10:16:16.984Z,12.25
2022-09-18T10:18:47.238Z,10.77
2022-09-18T10:21:24.480Z,12.25
2022-09-18T10:24:15.952Z,5.50
2022-09-18T10:26:53.901Z,6.88
2022-09-18T10:29:21.038Z,6.47
2022-09-18T10:31:54.410Z,4.60
2022-09-18T10:34:42.435Z,8.07
2022-09-18T10:37:29.505Z,6.43
2022-09-18T10:40:37.331Z,8.32
2022-09-18T10:43:07.707Z,6.25
2022-09-18T10:45:41.849Z,8.88
2022-09-18T10:48:28.161Z,6.38
2022-09-18T10:50:57.603Z,5.47
2022-09-18T10:53:39.835Z,7.45
2022-09-18T10:56:20.960Z,6.65
2022-09-18T10:58:51.449Z,6.07
2022-09-18T11:01:19.599Z,4.40
2022-09-18T11:04:02.829Z,6.82
2022-09-18T11:06:35.889Z,6.97
2022-09-18T11:09:30.529Z,5.50
2022-09-18T11:11:57.719Z,6.13
2022-09-18T11:17:05.450Z,8.95
2022-09-18T11:19:40.007Z,8.43
2022-09-18T11:22:45.358Z,6.75
2022-09-18T11:25:22.837Z,6.07
2022-09-18T11:27:58.037Z,5.75
2022-09-18T11:30:35.542Z,4.75
2022-09-18T11:33:27.095Z,4.80
2022-09-18T11:36:01.631Z,8.35
2022-09-18T11:38:31.954Z,3.70
2022-09-18T11:41:01.782Z,8.27
2022-09-18T11:43:41.212Z,8.38
2022-09-18T11:46:31.889Z,4.47
2022-09-18T11:49:07.712Z,5.40
2022-09-18T11:51:53.692Z,6.78
2022-09-18T11:54:42.306Z,5.05
2022-09-18T11:57:17.671Z,4.18
2022-09-18T11:59:55.154Z,3.65
2022-09-18T12:02:41.306Z,7.35
2022-09-18T12:05:58.997Z,4.32
2022-09-18T12:08:55.018Z,3.83
2022-09-18T12:12:00.848Z,6.18
2022-09-18T12:14:41.792Z,5.15
2022-09-18T12:17:34.691Z,4.60
2022-09-18T12:20:06.986Z,4.30
2022-09-18T12:22:41.747Z,5.18
2022-09-18T12:25:14.323Z,7.05
2022-09-18T12:28:41.343Z,4.45
2022-09-18T12:32:01.606Z,4.20
2022-09-18T12:34:54.857Z,6.70
2022-09-18T12:37:31.881Z,7.88
2022-09-18T12:40:24.901Z,7.78
2022-09-18T12:43:10.275Z,5.80
2022-09-18T12:45:42.292Z,5.65
2022-09-18T12:51:01.005Z,7.88
2022-09-18T12:53:49.286Z,5.75
2022-09-18T12:56:16.299Z,3.92
2022-09-18T12:58:58.425Z,7.75
2022-09-18T13:01:31.778Z,4.55
2022-09-18T13:04:30.373Z,5.85
2022-09-18T13:07:26.399Z,5.82
2022-09-18T13:10:17.405Z,2.65
2022-09-18T13:13:15.478Z,5.95
2022-09-18T13:15:49.069Z,4.38
2022-09-18T13:18:19.559Z,3.97
2022-09-18T13:20:46.986Z,4.97
2022-09-18T13:23:27.790Z,5.47
2022-09-18T13:25:56.871Z,7.10
2022-09-18T13:28:27.551Z,4.80
2022-09-18T13:31:22.757Z,3.85
2022-09-18T13:34:01.943Z,8.13
2022-09-18T13:36:32.923Z,6.25
2022-09-18T13:39:04.827Z,5.80
2022-09-18T13:41:48.876Z,4.70
2022-09-18T13:44:28.518Z,4.63
2022-09-18T13:46:58.281Z,6.97
2022-09-18T13:49:32.115Z,6.40
2022-09-18T13:52:34.050Z,4.28
2022-09-18T13:55:13.062Z,7.00
2022-09-18T13:57:41.512Z,4.63
2022-09-18T14:00:20.561Z,5.68
2022-09-18T14:02:48.980Z,5.28
2022-09-18T14:05:38.536Z,7.05
2022-09-18T14:08:10.300Z,4.68
2022-09-18T14:10:54.906Z,4.97
2022-09-18T14:13:38.267Z,5.03
2022-09-18T14:16:20.596Z,5.05
2022-09-18T14:18:47.558Z,9.23
2022-09-18T14:21:17.629Z,7.45
2022-09-18T14:23:47.063Z,6.40
2022-09-18T14:26:29.547Z,6.80
2022-09-18T14:29:05.184Z,7.03
2022-09-18T14:31:49.053Z,6.18
2022-09-18T14:34:23.106Z,6.85
2022-09-18T14:36:55.699Z,5.63
2022-09-18T14:39:35.445Z,6.30
2022-09-18T14:42:23.515Z,5.50
2022-09-18T14:44:54.255Z,5.88
2022-09-18T14:47:23.753Z,7.47
2022-09-18T14:49:51.387Z,6.28
2022-09-18T14:52:22.569Z,9.45
2022-09-18T14:54:51.608Z,6.68
2022-09-18T14:57:26.152Z,9.60
2022-09-18T14:59:58.628Z,10.32
2022-09-18T15:02:52.617Z,8.13
2022-09-18T15:05:22.388Z,8.52
2022-09-18T15:08:07.195Z,6.93
2022-09-18T15:10:37.954Z,8.15
2022-09-18T15:13:09.337Z,6.72
2022-09-18T15:15:39.495Z,8.73
2022-09-18T15:18:24.026Z,7.80
2022-09-18T15:20:53.018Z,8.45
2022-09-18T15:23:27.617Z,9.88
2022-09-18T15:25:58.849Z,9.18
2022-09-18T15:28:28.931Z,8.25
2022-09-18T15:31:03.794Z,8.95
2022-09-18T15:33:35.096Z,12.20
2022-09-18T15:36:04.685Z,12.00
2022-09-18T15:38:45.748Z,9.52
2022-09-18T15:41:31.396Z,10.75
2022-09-18T15:43:58.479Z,8.45
2022-09-18T15:46:29.104Z,9.30
2022-09-18T15:49:00.392Z,10.98
2022-09-18T15:51:30.281Z,9.68
2022-09-18T15:54:03.333Z,9.00
2022-09-18T15:56:33.950Z,7.65
2022-09-18T15:59:04.275Z,8.50
2022-09-18T16:01:40.016Z,10.23
2022-09-18T16:04:24.278Z,10.07
2022-09-18T16:07:00.427Z,10.10
2022-09-18T16:09:38.209Z,9.07
2022-09-18T16:12:26.797Z,11.30
2022-09-18T16:14:56.677Z,9.45
2022-09-18T16:17:32.816Z,7.45
2022-09-18T16:20:27.114Z,8.35
2022-09-18T16:22:58.538Z,12.93
2022-09-18T16:25:29.137Z,11.05
2022-09-18T16:27:59.332Z,8.00
2022-09-18T16:30:28.005Z,8.73
2022-09-18T16:33:14.815Z,7.55
2022-09-18T16:35:41.833Z,9.07
2022-09-18T16:38:09.621Z,13.23
2022-09-18T16:40:36.795Z,8.05
2022-09-18T16:43:03.804Z,8.35
2022-09-18T16:45:31.042Z,7.40
2022-09-18T16:48:00.572Z,10.43
2022-09-18T16:50:28.114Z,7.82
2022-09-18T16:52:58.479Z,10.63
2022-09-18T16:55:29.042Z,7.85
2022-09-18T16:57:57.374Z,6.93
2022-09-18T17:00:25.013Z,11.30
2022-09-18T17:02:53.008Z,8.60
2022-09-18T17:05:20.024Z,11.70
2022-09-18T17:07:47.056Z,8.13
2022-09-18T17:10:13.980Z,9.23
2022-09-18T17:12:41.892Z,11.15
2022-09-18T17:15:10.279Z,8.70
2022-09-18T17:17:37.222Z,10.65
2022-09-18T17:20:05.599Z,10.18
2022-09-18T17:22:33.197Z,10.02
2022-09-18T17:25:00.015Z,8.32
2022-09-18T17:27:26.906Z,7.47
2022-09-18T17:29:54.284Z,8.48
2022-09-18T17:32:21.401Z,7.13
2022-09-18T17:34:48.403Z,9.43
2022-09-18T17:37:15.745Z,10.25
2022-09-18T17:39:42.655Z,8.98
2022-09-18T17:42:09.532Z,9.13
2022-09-18T17:44:37.154Z,6.28
2022-09-18T17:47:04.057Z,6.18
2022-09-18T17:49:34.844Z,7.03
2022-09-18T17:52:02.239Z,7.03
2022-09-18T17:54:29.144Z,6.72
2022-09-18T17:56:56.045Z,5.60
2022-09-18T17:59:23.133Z,7.30
2022-09-18T18:01:50.622Z,7.78
2022-09-18T18:04:18.015Z,7.97
2022-09-18T18:06:48.927Z,7.18
2022-09-18T18:09:16.397Z,7.60
2022-09-18T18:11:44.314Z,5.18
2022-09-18T18:14:11.633Z,7.78
2022-09-18T18:16:41.104Z,5.55
2022-09-18T18:19:12.472Z,7.93
2022-09-18T18:24:12.940Z,4.82
2022-09-18T18:26:40.676Z,4.93
2022-09-18T18:29:11.568Z,6.70
2022-09-18T18:31:40.662Z,4.38
2022-09-18T18:34:10.837Z,4.57
2022-09-18T18:36:40.043Z,4.28
2022-09-18T18:39:12.016Z,6.53
2022-09-18T18:41:39.730Z,6.85
2022-09-18T18:44:07.346Z,4.47
2022-09-18T18:46:36.473Z,4.88
2022-09-18T18:49:12.928Z,5.43
2022-09-18T18:51:47.524Z,9.55
2022-09-18T18:54:18.308Z,5.13
2022-09-18T18:56:47.060Z,6.30
2022-09-18T18:59:17.283Z,6.25
2022-09-18T19:01:45.320Z,9.45
2022-09-18T19:04:15.439Z,6.65
2022-09-18T19:06:44.454Z,5.03
2022-09-18T19:09:20.259Z,8.15
2022-09-18T19:11:49.759Z,5.57
2022-09-18T19:14:20.467Z,8.65
2022-09-18T19:16:48.711Z,8.45
2022-09-18T19:19:17.678Z,7.00
2022-09-18T19:21:44.795Z,4.28
2022-09-18T19:24:12.847Z,15.75
2022-09-18T19:26:41.213Z,9.10
2022-09-18T19:29:12.298Z,10.35
2022-09-18T19:31:41.134Z,6.88
2022-09-18T19:34:11.883Z,9.43
2022-09-18T19:36:39.955Z,8.90
2022-09-18T19:39:08.585Z,11.43
2022-09-18T19:41:47.503Z,7.28
2022-09-18T19:44:23.011Z,5.78
2022-09-18T19:46:52.293Z,9.20
2022-09-18T19:49:22.514Z,7.68
2022-09-18T19:51:49.402Z,5.10
2022-09-18T19:54:16.271Z,7.05
2022-09-18T19:56:48.307Z,12.80
2022-09-18T19:59:17.056Z,10.02
2022-09-18T20:01:44.887Z,9.45
2022-09-18T20:04:11.816Z,7.53
2022-09-18T20:06:40.504Z,6.88
2022-09-18T20:09:08.014Z,8.80
2022-09-18T20:11:35.355Z,6.75
2022-09-18T20:14:02.193Z,5.82
2022-09-18T20:16:29.646Z,6.55
2022-09-18T20:18:56.528Z,5.10
2022-09-18T20:21:24.168Z,5.25
2022-09-18T20:23:56.012Z,5.65
2022-09-18T20:28:49.675Z,5.93
2022-09-18T20:31:17.092Z,5.43
2022-09-18T20:33:44.425Z,7.30
2022-09-18T20:36:12.118Z,9.68
2022-09-18T20:38:41.220Z,6.13
2022-09-18T20:41:16.070Z,7.15
2022-09-18T20:43:44.174Z,4.93
2022-09-18T20:46:15.879Z,7.32
2022-09-18T20:48:46.386Z,6.53
2022-09-18T20:51:14.850Z,4.18
2022-09-18T20:53:45.741Z,4.15
2022-09-18T20:58:42.431Z,9.30
2022-09-18T21:01:12.151Z,8.73
2022-09-18T21:03:42.776Z,9.07
2022-09-18T21:06:22.437Z,9.10
2022-09-18T21:08:53.594Z,9.57
2022-09-18T21:11:28.527Z,7.45
2022-09-18T21:13:59.591Z,13.65
2022-09-18T21:16:29.681Z,12.80
2022-09-18T21:18:57.863Z,9.35
2022-09-18T21:21:26.978Z,10.35
2022-09-18T21:24:02.126Z,11.10
2022-09-18T21:26:35.568Z,16.55
2022-09-18T21:29:04.816Z,11.52
2022-09-18T21:31:35.581Z,20.05
2022-09-18T21:34:04.517Z,12.13
2022-09-18T21:36:38.553Z,17.10
2022-09-18T21:39:08.877Z,13.70
2022-09-18T21:41:38.071Z,15.52
2022-09-18T21:44:08.750Z,16.13
2022-09-18T21:46:38.064Z,19.05
2022-09-18T21:49:06.873Z,18.38
2022-09-18T21:51:35.182Z,18.85
2022-09-18T21:54:05.592Z,13.82
2022-09-18T21:56:33.312Z,14.43
2022-09-18T21:59:00.655Z,12.15
2022-09-18T22:01:33.663Z,14.30
2022-09-18T22:04:03.400Z,14.20
2022-09-18T22:06:36.437Z,17.00
2022-09-18T22:09:09.070Z,14.80
2022-09-18T22:11:37.006Z,15.68
2022-09-18T22:14:07.229Z,13.48
2022-09-18T22:16:34.757Z,17.02
2022-09-18T22:19:02.402Z,13.52
2022-09-18T22:21:33.275Z,15.15
2022-09-18T22:24:08.764Z,15.10
2022-09-18T22:26:41.389Z,13.10
2022-09-18T22:29:20.707Z,15.18
2022-09-18T22:31:49.300Z,17.25
2022-09-18T22:34:22.038Z,14.32
2022-09-18T22:36:49.726Z,15.93
2022-09-18T22:39:18.391Z,12.82
2022-09-18T22:41:45.509Z,10.82
2022-09-18T22:44:12.923Z,12.98
2022-09-18T22:46:42.519Z,11.07
2022-09-18T22:49:12.958Z,10.77
2022-09-18T22:51:40.762Z,10.35
2022-09-18T22:54:07.988Z,12.05
2022-09-18T22:56:46.718Z,11.45
2022-09-18T22:59:16.259Z,12.05
2022-09-18T23:01:51.935Z,11.25
2022-09-18T23:04:20.842Z,12.48
2022-09-18T23:06:48.546Z,8.13
2022-09-18T23:09:17.562Z,10.00
2022-09-18T23:11:46.436Z,14.40
2022-09-18T23:14:18.406Z,10.48
2022-09-18T23:16:45.945Z,8.60
2022-09-18T23:19:28.607Z,15.65
2022-09-18T23:21:55.914Z,6.88
2022-09-18T23:24:23.598Z,7.47
2022-09-18T23:26:52.283Z,10.10
2022-09-18T23:29:22.765Z,11.00
2022-09-18T23:31:53.136Z,7.18
2022-09-18T23:34:23.587Z,10.00
2022-09-18T23:36:52.937Z,7.38
2022-09-18T23:39:28.690Z,9.48
2022-09-18T23:41:58.876Z,11.25
2022-09-18T23:44:28.593Z,7.38
2022-09-18T23:46:56.034Z,7.22
2022-09-18T23:49:23.835Z,7.65
2022-09-18T23:51:54.058Z,5.32
2022-09-18T23:54:29.781Z,5.20
2022-09-18T23:56:56.834Z,7.38
2022-09-18T23:59:25.797Z,8.43
